Time;durP1;ratioP1;P1;durP2;ratioP2;P2;SDS_P1;SDS_P2;PMS_P1;PMS_P2;Temp;Humidity;BMP_temperature;BMP_pressure;BME280_temperature;BME280_humidity;BME280_pressure;Samples;Min_cycle;Max_cycle;Signal;HPM_P1;HPM_P2
2021/10/10 00:01:26;;;;;;;11.53;7.67;;;;;;;9.65;41.04;102291.23;1780661;80;20998;-75
2021/10/10 00:03:53;;;;;;;12.82;8.40;;;;;;;9.65;41.20;102287.73;1780822;79;20868;-75
2021/10/10 00:06:20;;;;;;;12.40;8.23;;;;;;;9.64;41.37;102288.19;1780714;80;21099;-77
2021/10/10 00:08:47;;;;;;;15.83;8.18;;;;;;;9.64;41.34;102288.66;1780617;80;21034;-76
2021/10/10 00:12:34;;;;;;;10.85;7.50;;;;;;;9.66;41.80;102282.45;1816396;79;22234;-76
2021/10/10 00:15:01;;;;;;;13.03;8.33;;;;;;;9.63;42.02;102295.66;1789543;80;20983;-76
2021/10/10 00:17:28;;;;;;;13.32;8.08;;;;;;;9.62;44.49;102291.77;1789446;79;21553;-76
2021/10/10 00:19:55;;;;;;;12.07;7.22;;;;;;;9.61;44.34;102292.22;1789523;80;20857;-75
2021/10/10 00:22:22;;;;;;;15.08;8.33;;;;;;;9.59;45.62;102290.09;1789402;80;21441;-75
2021/10/10 00:24:49;;;;;;;13.55;7.20;;;;;;;9.58;47.59;102284.89;1789563;80;21010;-75
2021/10/10 00:27:16;;;;;;;11.08;7.75;;;;;;;9.55;48.32;102284.53;1789489;80;20931;-75
2021/10/10 00:29:42;;;;;;;12.00;7.35;;;;;;;9.50;47.91;102284.67;1789341;80;21116;-75
2021/10/10 00:32:10;;;;;;;10.82;7.25;;;;;;;9.49;48.63;102289.52;1789418;80;21402;-75
2021/10/10 00:34:37;;;;;;;11.95;6.78;;;;;;;9.47;49.64;102289.12;1789596;80;20876;-74
2021/10/10 00:37:04;;;;;;;13.48;6.40;;;;;;;9.44;49.69;102288.77;1789712;80;20967;-75
2021/10/10 00:39:30;;;;;;;8.90;6.00;;;;;;;9.42;50.03;102291.88;1789365;80;20998;-74
2021/10/10 00:41:58;;;;;;;10.70;6.25;;;;;;;9.39;50.06;102289.36;1789666;80;21942;-75
2021/10/10 00:44:25;;;;;;;17.00;5.70;;;;;;;9.38;50.67;102286.77;1789244;80;21491;-75
2021/10/10 00:46:53;;;;;;;8.83;5.22;;;;;;;9.33;48.92;102289.06;1789803;80;20896;-75
2021/10/10 00:49:20;;;;;;;11.00;4.97;;;;;;;9.30;48.47;102289.62;1789426;80;21124;-75
2021/10/10 00:51:46;;;;;;;9.68;5.20;;;;;;;9.26;47.97;102289.29;1789558;80;21345;-74
2021/10/10 00:54:14;;;;;;;8.45;5.28;;;;;;;9.23;47.98;102292.00;1789432;80;21494;-74
2021/10/10 00:56:43;;;;;;;8.48;5.33;;;;;;;9.22;48.24;102287.66;1789576;80;20951;-75
2021/10/10 00:59:14;;;;;;;10.82;5.08;;;;;;;9.21;48.43;102285.95;1789445;79;20928;-74
2021/10/10 01:01:41;;;;;;;12.85;4.90;;;;;;;9.20;48.77;102289.45;1789376;79;20954;-75
2021/10/10 01:04:08;;;;;;;11.10;4.90;;;;;;;9.19;48.74;102290.36;1789611;80;20880;-74
2021/10/10 01:06:35;;;;;;;8.15;5.08;;;;;;;9.17;48.16;102290.86;1789450;80;21148;-75
2021/10/10 01:09:01;;;;;;;6.60;5.28;;;;;;;9.16;48.50;102290.00;1789310;80;21010;-74
2021/10/10 01:11:28;;;;;;;8.23;4.85;;;;;;;9.16;49.05;102293.93;1783160;79;20821;-75
2021/10/10 01:13:55;;;;;;;9.18;5.95;;;;;;;9.16;50.91;102291.73;1776034;80;20948;-76
2021/10/10 01:16:22;;;;;;;8.28;5.80;;;;;;;9.14;51.59;102295.73;1775994;80;21066;-75
2021/10/10 01:18:49;;;;;;;9.35;5.62;;;;;;;9.15;53.15;102298.73;1775814;80;21169;-75
2021/10/10 01:21:18;;;;;;;8.85;5.58;;;;;;;9.12;53.86;102297.52;1776204;80;20861;-75
2021/10/10 01:23:44;;;;;;;12.90;5.55;;;;;;;9.09;54.36;102298.47;1775359;80;20924;-75
2021/10/10 01:26:11;;;;;;;11.60;6.10;;;;;;;9.05;52.71;102295.52;1775341;80;21422;-75
2021/10/10 01:28:38;;;;;;;8.08;4.85;;;;;;;9.03;52.82;102298.63;1775499;80;20881;-75
2021/10/10 01:31:05;;;;;;;13.05;5.47;;;;;;;9.03;51.44;102301.70;1775409;80;21870;-74
2021/10/10 01:33:33;;;;;;;8.38;4.03;;;;;;;9.03;50.23;102300.39;1775164;80;20948;-74
2021/10/10 01:36:00;;;;;;;7.70;3.83;;;;;;;9.02;48.50;102296.89;1775375;80;20904;-73
2021/10/10 01:38:27;;;;;;;5.35;3.62;;;;;;;9.02;47.25;102296.89;1775510;80;20939;-74
2021/10/10 01:40:53;;;;;;;5.67;3.30;;;;;;;9.03;46.40;102299.09;1775419;80;20904;-76
2021/10/10 01:43:20;;;;;;;8.83;4.47;;;;;;;9.04;45.79;102297.72;1775317;80;21211;-75
2021/10/10 01:45:47;;;;;;;10.53;3.37;;;;;;;9.05;45.33;102303.38;1775222;80;20877;-75
2021/10/10 01:48:14;;;;;;;6.65;3.77;;;;;;;9.07;44.47;102296.77;1775587;80;20928;-77
2021/10/10 01:50:41;;;;;;;5.83;3.05;;;;;;;9.07;43.95;102297.65;1775287;80;20995;-77
2021/10/10 01:53:08;;;;;;;7.67;3.72;;;;;;;9.08;43.62;102301.13;1775620;80;20869;-76
2021/10/10 01:55:35;;;;;;;9.10;3.30;;;;;;;9.09;43.29;102299.78;1775363;80;21947;-77
2021/10/10 01:58:02;;;;;;;4.97;3.00;;;;;;;9.10;43.21;102294.94;1775531;80;20999;-73
2021/10/10 02:00:30;;;;;;;7.45;3.52;;;;;;;9.12;43.39;102300.14;1775205;80;20884;-74
2021/10/10 02:02:56;;;;;;;8.28;3.10;;;;;;;9.12;43.15;102304.92;1775557;80;20885;-75
2021/10/10 02:05:24;;;;;;;5.10;3.47;;;;;;;9.12;42.99;102298.37;1775256;80;20927;-75
2021/10/10 02:07:52;;;;;;;6.15;3.50;;;;;;;9.11;43.16;102303.22;1775336;80;21190;-75
2021/10/10 02:10:19;;;;;;;10.08;3.95;;;;;;;9.10;43.49;102302.79;1775220;80;20900;-74
2021/10/10 02:12:47;;;;;;;6.00;3.35;;;;;;;9.09;43.69;102299.78;1775214;80;20885;-76
2021/10/10 02:15:14;;;;;;;6.30;3.67;;;;;;;9.07;43.92;102302.89;1775186;80;21370;-75
2021/10/10 02:17:41;;;;;;;7.37;4.00;;;;;;;9.07;44.21;102302.00;1775226;80;20936;-75
2021/10/10 02:20:11;;;;;;;7.37;3.60;;;;;;;9.05;44.33;102304.68;1775043;80;21110;-75
2021/10/10 02:22:37;;;;;;;8.20;3.42;;;;;;;9.04;44.52;102299.02;1775708;80;20912;-75
2021/10/10 02:25:05;;;;;;;6.80;3.83;;;;;;;9.03;44.49;102298.63;1775263;80;21004;-76
2021/10/10 02:27:32;;;;;;;8.53;4.10;;;;;;;9.03;44.55;102304.31;1775179;80;21007;-76
2021/10/10 02:30:00;;;;;;;9.50;4.08;;;;;;;9.01;44.47;102305.66;1775608;80;20999;-76
2021/10/10 02:32:27;;;;;;;8.35;4.78;;;;;;;9.01;44.43;102300.42;1775714;80;21776;-75
2021/10/10 02:34:53;;;;;;;8.70;4.15;;;;;;;9.00;44.41;102301.77;1775065;80;20936;-76
2021/10/10 02:37:21;;;;;;;6.25;3.37;;;;;;;9.01;44.49;102305.66;1775246;80;21003;-76
2021/10/10 02:39:48;;;;;;;13.93;4.75;;;;;;;8.99;44.54;102303.53;1775154;80;20912;-75
2021/10/10 02:42:15;;;;;;;7.20;3.30;;;;;;;9.00;44.61;102306.99;1775332;80;20972;-75
2021/10/10 02:44:42;;;;;;;11.38;5.10;;;;;;;8.97;44.61;102304.02;1775249;80;21465;-75
2021/10/10 02:47:09;;;;;;;15.83;6.85;;;;;;;8.97;44.80;102305.78;1775616;80;20913;-74
2021/10/10 02:49:36;;;;;;;7.25;4.33;;;;;;;8.95;44.83;102303.19;1775205;80;20960;-75
2021/10/10 02:52:03;;;;;;;6.90;4.28;;;;;;;8.93;45.10;102305.84;1775506;80;21097;-75
2021/10/10 02:54:30;;;;;;;10.85;3.60;;;;;;;8.91;45.20;102302.86;1775510;80;21010;-75
2021/10/10 02:56:58;;;;;;;8.40;4.00;;;;;;;8.88;44.93;102305.56;1738335;82;21527;-76
2021/10/10 02:59:25;;;;;;;8.00;4.58;;;;;;;8.85;45.29;102308.27;1775182;80;21382;-75
2021/10/10 03:01:52;;;;;;;8.65;5.30;;;;;;;8.83;45.47;102310.06;1775632;80;20983;-74
2021/10/10 03:04:19;;;;;;;5.33;3.87;;;;;;;8.80;45.45;102305.75;1775191;80;21382;-75
2021/10/10 03:06:46;;;;;;;4.90;3.72;;;;;;;8.77;45.16;102308.45;1775519;80;20900;-74
2021/10/10 03:09:13;;;;;;;8.45;3.80;;;;;;;8.75;45.05;102298.92;1775552;80;21104;-75
2021/10/10 03:11:40;;;;;;;6.25;3.33;;;;;;;8.71;45.19;102305.55;1776757;80;20996;-75
2021/10/10 03:14:07;;;;;;;6.85;3.45;;;;;;;8.70;45.04;102305.13;1783582;80;21363;-75
2021/10/10 03:16:34;;;;;;;9.40;4.03;;;;;;;8.69;44.52;102314.31;1783778;80;20968;-75
2021/10/10 03:19:01;;;;;;;4.80;3.08;;;;;;;8.66;44.40;102302.17;1783489;80;20998;-75
2021/10/10 03:21:27;;;;;;;6.75;3.12;;;;;;;8.64;44.42;102305.27;1783975;80;21738;-76
2021/10/10 03:23:55;;;;;;;7.33;3.12;;;;;;;8.64;44.23;102300.50;1783517;80;20924;-76
2021/10/10 03:26:23;;;;;;;7.92;3.62;;;;;;;8.63;43.91;102307.49;1783492;80;20979;-76
2021/10/10 03:28:50;;;;;;;7.20;3.25;;;;;;;8.64;43.94;102308.34;1783470;80;20893;-75
2021/10/10 03:31:17;;;;;;;6.12;3.77;;;;;;;8.65;43.81;102307.47;1783881;80;20860;-75
2021/10/10 03:33:44;;;;;;;8.43;3.37;;;;;;;8.65;43.77;102304.84;1783667;80;21530;-74
2021/10/10 03:36:11;;;;;;;6.72;3.22;;;;;;;8.65;43.89;102303.55;1783493;80;21006;-75
2021/10/10 03:38:38;;;;;;;6.95;3.40;;;;;;;8.66;43.76;102297.40;1783613;80;20963;-75
2021/10/10 03:41:05;;;;;;;5.78;2.85;;;;;;;8.67;43.67;102305.22;1783824;80;20911;-75
2021/10/10 03:43:32;;;;;;;5.83;3.45;;;;;;;8.67;43.58;102307.83;1783551;80;20928;-73
2021/10/10 03:45:59;;;;;;;3.95;2.40;;;;;;;8.69;43.65;102307.77;1785244;80;21105;-74
2021/10/10 03:48:26;;;;;;;5.00;3.65;;;;;;;8.69;43.62;102297.31;1784955;80;20939;-72
2021/10/10 03:50:53;;;;;;;5.47;3.20;;;;;;;8.69;43.54;102301.23;1784892;80;21441;-73
2021/10/10 03:53:23;;;;;;;5.22;3.17;;;;;;;8.70;43.60;102303.82;1785581;80;20881;-73
2021/10/10 03:55:51;;;;;;;4.53;2.65;;;;;;;8.71;43.47;102297.71;1786941;80;20904;-72
2021/10/10 03:58:17;;;;;;;4.97;2.85;;;;;;;8.72;43.43;102290.72;1786972;80;21146;-71
2021/10/10 04:00:44;;;;;;;8.23;3.55;;;;;;;8.74;43.33;102302.42;1786744;80;20936;-71
2021/10/10 04:03:13;;;;;;;6.22;3.15;;;;;;;8.75;43.25;102300.23;1786138;80;20952;-74
2021/10/10 04:05:45;;;;;;;8.05;3.45;;;;;;;8.76;43.19;102296.70;1783604;80;20908;-73
2021/10/10 04:08:12;;;;;;;5.37;2.75;;;;;;;8.78;43.22;102298.84;1783782;80;20994;-72
2021/10/10 04:10:39;;;;;;;3.62;2.72;;;;;;;8.80;43.08;102298.35;1783544;80;21059;-74
2021/10/10 04:13:07;;;;;;;4.10;3.35;;;;;;;8.81;43.05;102298.33;1778261;80;20928;-73
2021/10/10 04:15:34;;;;;;;4.97;3.70;;;;;;;8.81;43.00;102302.25;1775429;80;20972;-74
2021/10/10 04:18:01;;;;;;;9.75;3.15;;;;;;;8.82;43.03;102299.17;1775316;80;21504;-73
2021/10/10 04:20:28;;;;;;;7.05;2.92;;;;;;;8.83;43.12;102303.07;1775314;80;20983;-74
2021/10/10 04:22:55;;;;;;;5.55;3.22;;;;;;;8.84;43.01;102304.77;1775358;80;22217;-74
2021/10/10 04:25:22;;;;;;;9.50;2.90;;;;;;;8.84;43.39;102306.08;1775174;80;20924;-73
2021/10/10 04:27:50;;;;;;;8.98;3.00;;;;;;;8.87;43.20;102314.30;1775241;80;20884;-74
2021/10/10 04:30:16;;;;;;;4.60;2.80;;;;;;;8.87;43.07;102308.64;1775161;80;20853;-73
2021/10/10 04:32:44;;;;;;;4.05;2.67;;;;;;;8.89;43.02;102312.08;1775231;80;20921;-74
2021/10/10 04:35:11;;;;;;;7.50;3.08;;;;;;;8.90;42.92;102311.16;1775124;80;21919;-75
2021/10/10 04:37:38;;;;;;;9.25;3.17;;;;;;;8.91;43.19;102311.59;1775358;80;20861;-76
2021/10/10 04:40:06;;;;;;;8.25;3.58;;;;;;;8.93;43.05;102317.61;1775091;80;20962;-75
2021/10/10 04:42:36;;;;;;;7.47;3.30;;;;;;;8.95;42.96;102321.51;1775382;80;21473;-75
2021/10/10 04:45:06;;;;;;;9.03;3.60;;;;;;;8.95;42.68;102318.04;1775188;80;20932;-74
2021/10/10 04:47:34;;;;;;;4.62;3.45;;;;;;;8.95;42.75;102316.27;1775242;80;22029;-74
2021/10/10 04:50:01;;;;;;;11.68;3.90;;;;;;;8.96;42.78;102319.74;1775326;80;20928;-74
2021/10/10 04:52:30;;;;;;;9.45;3.72;;;;;;;8.98;43.00;102329.30;1775136;80;21494;-75
2021/10/10 04:54:57;;;;;;;5.90;3.65;;;;;;;9.00;43.01;102333.16;1775089;80;20849;-75
2021/10/10 04:57:24;;;;;;;12.95;3.62;;;;;;;9.00;42.88;102330.09;1775303;80;20940;-75
2021/10/10 04:59:51;;;;;;;8.80;3.40;;;;;;;9.02;42.91;102332.67;1775583;80;21496;-75
2021/10/10 05:02:19;;;;;;;10.40;3.12;;;;;;;9.03;42.79;102342.27;1775373;80;20881;-75
2021/10/10 05:04:47;;;;;;;10.82;4.25;;;;;;;9.04;42.55;102339.58;1775411;80;20892;-74
2021/10/10 05:07:17;;;;;;;9.73;3.25;;;;;;;9.04;42.65;102342.66;1775819;80;20980;-74
2021/10/10 05:09:45;;;;;;;11.50;4.45;;;;;;;9.06;42.61;102344.33;1775683;80;20976;-74
2021/10/10 05:12:15;;;;;;;11.45;3.67;;;;;;;9.07;42.65;102344.76;1775416;80;21066;-75
2021/10/10 05:14:42;;;;;;;5.25;2.90;;;;;;;9.08;42.75;102347.77;1780175;80;20920;-75
2021/10/10 05:17:09;;;;;;;5.62;3.40;;;;;;;9.10;42.54;102351.20;1783589;80;20928;-75
2021/10/10 05:19:38;;;;;;;6.10;4.62;;;;;;;9.12;42.53;102354.64;1783742;80;20888;-75
2021/10/10 05:22:05;;;;;;;12.78;3.92;;;;;;;9.15;42.60;102359.39;1783604;80;20892;-76
2021/10/10 05:24:32;;;;;;;16.12;4.50;;;;;;;9.15;42.30;102357.62;1783757;80;21135;-75
2021/10/10 05:27:00;;;;;;;11.50;3.37;;;;;;;9.17;42.49;102361.06;1783892;80;20924;-76
2021/10/10 05:29:28;;;;;;;5.65;3.87;;;;;;;9.19;42.50;102361.89;1783736;80;20872;-74
2021/10/10 05:31:59;;;;;;;6.83;4.60;;;;;;;9.22;42.56;102358.33;1783884;80;20979;-75
2021/10/10 05:34:26;;;;;;;18.50;4.08;;;;;;;9.24;42.43;102360.00;1783900;80;20884;-73
2021/10/10 05:36:54;;;;;;;9.65;4.30;;;;;;;9.26;42.28;102357.35;1783563;80;21549;-74
2021/10/10 05:39:22;;;;;;;9.63;4.75;;;;;;;9.28;42.35;102360.34;1783810;80;20967;-76
2021/10/10 05:41:48;;;;;;;8.50;4.25;;;;;;;9.31;42.44;102356.31;1783581;80;21462;-74
2021/10/10 05:44:15;;;;;;;11.03;4.17;;;;;;;9.33;42.28;102362.37;1783853;80;20940;-75
2021/10/10 05:46:42;;;;;;;7.92;3.85;;;;;;;9.35;42.27;102355.80;1783599;80;21421;-76
2021/10/10 05:49:09;;;;;;;12.18;4.60;;;;;;;9.38;42.25;102359.63;1783744;80;21876;-75
2021/10/10 05:51:36;;;;;;;9.48;4.65;;;;;;;9.41;42.15;102356.95;1783435;80;20885;-75
2021/10/10 05:54:05;;;;;;;8.98;4.20;;;;;;;9.44;42.13;102366.02;1783514;80;21027;-75
2021/10/10 05:56:38;;;;;;;9.05;4.87;;;;;;;9.46;42.02;102360.28;1783537;80;20982;-75
2021/10/10 05:59:07;;;;;;;11.38;3.70;;;;;;;9.49;42.08;102365.46;1784051;80;20927;-76
2021/10/10 06:01:32;;;;;;;11.03;4.22;;;;;;;9.52;41.96;102359.27;1783228;80;21842;-75
2021/10/10 06:03:59;;;;;;;6.17;3.52;;;;;;;9.57;41.71;102364.38;1783998;80;20872;-76
2021/10/10 06:06:26;;;;;;;11.53;4.53;;;;;;;9.60;41.59;102365.59;1783342;80;20908;-76
2021/10/10 06:08:53;;;;;;;5.75;3.80;;;;;;;9.64;41.86;102367.23;1783812;80;20951;-76
2021/10/10 06:11:20;;;;;;;13.08;4.97;;;;;;;9.68;41.78;102368.41;1783667;80;20888;-75
2021/10/10 06:13:47;;;;;;;7.40;3.90;;;;;;;9.73;41.72;102370.44;1783605;80;21526;-76
2021/10/10 06:16:14;;;;;;;10.10;4.15;;;;;;;9.80;41.77;102378.13;1783559;80;20971;-76
2021/10/10 06:18:41;;;;;;;12.65;4.35;;;;;;;9.85;41.65;102372.30;1783549;80;21144;-76
2021/10/10 06:21:08;;;;;;;8.93;4.45;;;;;;;9.92;41.65;102371.25;1783771;80;20987;-76
2021/10/10 06:23:35;;;;;;;11.78;3.67;;;;;;;9.99;41.49;102370.61;1783788;80;21448;-76
2021/10/10 06:26:02;;;;;;;12.25;3.92;;;;;;;10.05;41.42;102370.41;1783823;80;21488;-76
2021/10/10 06:28:42;;;;;;;10.68;4.35;;;;;;;10.14;41.19;102367.55;1783632;80;20886;-77
2021/10/10 06:31:12;;;;;;;8.75;4.37;;;;;;;10.21;41.48;102373.46;1783567;80;20884;-77
2021/10/10 06:33:48;;;;;;;12.07;3.80;;;;;;;10.28;41.10;102373.21;1783283;80;20857;-76
2021/10/10 06:36:19;;;;;;;9.23;4.62;;;;;;;10.37;41.16;102374.73;1783961;80;21509;-77
2021/10/10 06:38:43;;;;;;;8.80;4.58;;;;;;;10.47;41.01;102380.53;1782845;80;21885;-77
2021/10/10 06:41:10;;;;;;;12.85;5.33;;;;;;;10.56;40.72;102378.93;1783747;80;20928;-77
2021/10/10 06:43:37;;;;;;;14.85;6.35;;;;;;;10.66;40.80;102376.89;1783629;80;20884;-76
2021/10/10 06:46:03;;;;;;;5.17;3.90;;;;;;;10.75;40.70;102373.97;1783895;80;21066;-76
2021/10/10 06:48:31;;;;;;;7.60;4.05;;;;;;;10.87;40.13;102375.32;1783644;80;20932;-76
2021/10/10 06:50:58;;;;;;;12.47;5.90;;;;;;;10.95;39.95;102374.62;1783707;80;21477;-76
2021/10/10 06:53:25;;;;;;;7.10;4.25;;;;;;;11.04;39.87;102370.83;1783387;80;20971;-75
2021/10/10 06:55:51;;;;;;;18.05;6.00;;;;;;;11.13;39.77;102376.62;1783726;80;21551;-75
2021/10/10 06:58:18;;;;;;;10.85;5.87;;;;;;;11.24;39.83;102372.78;1783433;80;20888;-76
2021/10/10 07:00:45;;;;;;;7.55;5.12;;;;;;;11.35;39.36;102378.52;1783957;80;20928;-75
2021/10/10 07:03:12;;;;;;;11.15;5.42;;;;;;;11.44;39.05;102373.39;1783500;80;21148;-76
2021/10/10 07:05:40;;;;;;;8.28;5.05;;;;;;;11.50;38.88;102371.41;1783537;80;20907;-75
2021/10/10 07:08:13;;;;;;;8.33;5.03;;;;;;;11.58;38.41;102364.12;1783341;80;21429;-78
2021/10/10 07:10:40;;;;;;;12.60;6.40;;;;;;;11.67;38.27;102367.30;1782771;80;20897;-76
2021/10/10 07:13:14;;;;;;;6.75;4.95;;;;;;;11.74;38.40;102365.72;1783382;80;21429;-78
2021/10/10 07:15:43;;;;;;;12.47;5.58;;;;;;;11.83;38.14;102365.84;1777384;80;21012;-77
2021/10/10 07:18:10;;;;;;;11.88;5.17;;;;;;;11.91;38.14;102360.31;1775318;80;20889;-74
2021/10/10 07:21:05;;;;;;;10.20;5.53;;;;;;;12.01;38.20;102360.38;1775137;80;20873;-78
2021/10/10 07:23:32;;;;;;;17.98;6.40;;;;;;;12.12;37.89;102369.18;1773758;80;20909;-76
2021/10/10 07:25:56;;;;;;;8.25;5.30;;;;;;;12.23;37.55;102359.10;1774269;80;20924;-75
2021/10/10 07:28:23;;;;;;;10.03;5.47;;;;;;;12.33;37.54;102357.80;1775193;80;21136;-76
2021/10/10 07:30:50;;;;;;;14.35;5.83;;;;;;;12.42;37.32;102360.53;1775180;80;20960;-74
2021/10/10 07:33:18;;;;;;;24.67;13.13;;;;;;;12.54;36.79;102361.80;1775093;80;20860;-75
2021/10/10 07:35:45;;;;;;;10.50;6.58;;;;;;;12.64;36.78;102353.95;1775007;80;21433;-74
2021/10/10 07:38:12;;;;;;;9.23;5.62;;;;;;;12.78;36.93;102356.89;1775442;80;20956;-75
2021/10/10 07:40:39;;;;;;;7.25;4.65;;;;;;;12.94;37.08;102353.59;1775104;80;21128;-73
2021/10/10 07:43:06;;;;;;;11.18;4.17;;;;;;;13.10;36.25;102353.35;1775142;80;20912;-77
2021/10/10 07:45:40;;;;;;;7.67;4.58;;;;;;;13.25;36.04;102357.96;1753593;80;20896;-76
2021/10/10 07:48:03;;;;;;;7.65;4.72;;;;;;;13.39;35.17;102364.44;1774762;80;20928;-76
2021/10/10 07:50:33;;;;;;;7.60;4.03;;;;;;;13.47;34.93;102349.13;1775107;80;21489;-77
2021/10/10 07:53:00;;;;;;;3.80;3.30;;;;;;;13.60;35.42;102353.39;1775533;80;21491;-80
2021/10/10 07:55:28;;;;;;;6.97;3.70;;;;;;;13.75;34.56;102347.43;1775115;80;20932;-78
2021/10/10 07:57:54;;;;;;;9.20;4.58;;;;;;;13.91;34.69;102350.22;1775679;80;20936;-75
2021/10/10 08:00:23;;;;;;;9.45;4.62;;;;;;;14.04;34.22;102343.91;1775180;80;20928;-76
2021/10/10 08:02:56;;;;;;;14.30;4.83;;;;;;;14.19;34.24;102343.19;1775448;80;20885;-75
2021/10/10 08:05:25;;;;;;;10.88;4.22;;;;;;;14.36;33.87;102340.19;1775361;80;21781;-75
2021/10/10 08:07:52;;;;;;;8.13;4.67;;;;;;;14.51;33.51;102342.09;1775459;80;21027;-75
2021/10/10 08:10:19;;;;;;;6.47;3.98;;;;;;;14.63;32.98;102344.62;1775118;80;20999;-76
2021/10/10 08:12:47;;;;;;;10.50;5.45;;;;;;;14.63;32.98;102344.62;1775143;80;21354;-78
2021/10/10 08:15:15;;;;;;;8.00;3.90;;;;;;;14.68;32.65;102343.95;1775078;80;20853;-75
2021/10/10 08:17:42;;;;;;;9.80;3.72;;;;;;;14.73;33.17;102341.92;1775203;80;22030;-80
2021/10/10 08:20:10;;;;;;;5.40;2.85;;;;;;;14.79;32.83;102342.09;1775116;80;20876;-79
2021/10/10 08:22:38;;;;;;;7.10;3.47;;;;;;;14.81;32.63;102336.27;1775119;80;20932;-77
2021/10/10 08:25:08;;;;;;;7.85;3.05;;;;;;;14.86;32.58;102346.13;1775165;80;20995;-76
2021/10/10 08:27:35;;;;;;;6.75;3.80;;;;;;;14.90;32.37;102345.05;1775284;80;21477;-76
2021/10/10 08:30:05;;;;;;;9.88;3.60;;;;;;;14.96;32.57;102334.62;1775279;80;21148;-75
2021/10/10 08:32:34;;;;;;;7.92;3.42;;;;;;;15.04;32.33;102341.22;1753282;80;20943;-77
2021/10/10 08:35:02;;;;;;;5.55;3.00;;;;;;;15.26;32.36;102343.61;1775393;80;20897;-76
2021/10/10 08:37:29;;;;;;;5.40;3.00;;;;;;;15.26;32.36;102343.61;1775716;80;20932;-76
2021/10/10 08:39:56;;;;;;;11.65;3.02;;;;;;;15.44;32.27;102339.14;1775773;80;20952;-76
2021/10/10 08:42:29;;;;;;;9.15;4.03;;;;;;;15.62;32.25;102336.46;1775349;80;22098;-77
2021/10/10 08:45:30;;;;;;;8.40;3.37;;;;;;;15.73;31.55;102338.09;1775375;80;20845;-76
2021/10/10 08:47:33;;;;;;;5.03;3.37;;;;;;;15.86;30.98;102336.96;1764610;80;20936;-77
2021/10/10 08:50:01;;;;;;;6.37;3.25;;;;;;;15.86;30.98;102336.96;1775622;80;20889;-75
2021/10/10 08:52:28;;;;;;;6.08;3.27;;;;;;;15.90;31.27;102334.06;1775276;80;20892;-76
2021/10/10 08:54:56;;;;;;;7.33;4.20;;;;;;;15.98;31.54;102330.12;1775397;80;21166;-76
2021/10/10 08:57:22;;;;;;;8.10;3.67;;;;;;;15.98;31.54;102330.12;1775286;80;20955;-76
2021/10/10 08:59:55;;;;;;;8.98;3.72;;;;;;;16.00;31.08;102329.58;1775302;80;21596;-76
2021/10/10 09:02:24;;;;;;;7.95;3.60;;;;;;;16.26;30.75;102323.67;1774628;80;20940;-78
2021/10/10 09:04:50;;;;;;;5.65;3.15;;;;;;;16.26;30.75;102323.67;1775603;80;20904;-77
2021/10/10 09:07:16;;;;;;;8.38;2.92;;;;;;;16.52;30.93;102318.69;1775361;80;21121;-78
2021/10/10 09:09:43;;;;;;;8.33;3.10;;;;;;;16.83;30.51;102327.50;1775485;80;21443;-76
2021/10/10 09:12:15;;;;;;;10.65;3.80;;;;;;;17.22;29.61;102318.97;1775354;80;20908;-77
2021/10/10 09:14:58;;;;;;;9.50;3.55;;;;;;;17.54;29.40;102313.47;1775228;80;21109;-78
2021/10/10 09:17:22;;;;;;;6.03;3.05;;;;;;;17.97;28.89;102316.11;1773463;80;21445;-79
2021/10/10 09:19:58;;;;;;;6.75;3.20;;;;;;;18.19;28.40;102314.25;1775458;80;21504;-80
2021/10/10 09:22:26;;;;;;;7.12;2.87;;;;;;;18.32;28.04;102312.49;1775347;80;21014;-79
2021/10/10 09:24:56;;;;;;;8.53;3.65;;;;;;;18.44;27.37;102316.98;1775681;80;20940;-77
2021/10/10 09:27:42;;;;;;;5.70;3.05;;;;;;;18.49;27.36;102314.02;1753125;80;21530;-80
2021/10/10 09:30:05;;;;;;;7.20;3.33;;;;;;;18.55;27.42;102310.11;1772993;80;21030;-78
2021/10/10 09:32:33;;;;;;;6.08;2.95;;;;;;;18.56;27.15;102307.33;1775307;80;21777;-78
2021/10/10 09:35:05;;;;;;;8.05;3.05;;;;;;;18.54;26.89;102303.95;1775650;80;20884;-78
2021/10/10 09:37:57;;;;;;;5.87;2.75;;;;;;;18.51;27.46;102302.81;1775813;80;20987;-79
2021/10/10 09:40:59;;;;;;;6.53;2.27;;;;;;;18.46;27.21;102297.45;1769802;80;28454;-78
2021/10/10 09:44:00;;;;;;;8.30;2.90;;;;;;;18.37;27.15;102297.09;1773233;80;20880;-80
2021/10/10 09:46:29;;;;;;;12.80;2.92;;;;;;;18.41;27.18;102299.08;1697980;83;21145;-79
2021/10/10 09:48:59;;;;;;;10.88;3.37;;;;;;;18.49;27.06;102303.39;1718909;83;20951;-79
2021/10/10 09:51:35;;;;;;;5.00;2.67;;;;;;;18.52;26.22;102298.34;1684575;85;20956;-78
2021/10/10 09:54:05;;;;;;;8.88;2.80;;;;;;;18.43;26.88;102292.71;1719149;82;21002;-78
2021/10/10 09:56:33;;;;;;;9.65;2.77;;;;;;;18.40;27.01;102292.89;1718921;83;21536;-79
2021/10/10 09:59:01;;;;;;;6.40;3.40;;;;;;;18.37;27.00;102291.78;1719142;83;21120;-79
2021/10/10 10:01:31;;;;;;;6.42;3.20;;;;;;;18.36;27.00;102295.86;1718995;83;20848;-78
2021/10/10 10:04:08;;;;;;;7.42;3.00;;;;;;;18.33;27.06;102293.41;1719304;83;20891;-79
2021/10/10 10:06:43;;;;;;;9.18;3.37;;;;;;;18.26;27.18;102290.31;1718849;83;20994;-79
2021/10/10 10:09:12;;;;;;;8.18;3.77;;;;;;;18.23;27.18;102298.02;1712699;82;20891;-79
2021/10/10 10:11:44;;;;;;;15.63;3.60;;;;;;;18.22;27.40;102299.42;1718928;83;21138;-80
2021/10/10 10:14:16;;;;;;;5.78;2.87;;;;;;;18.18;27.23;102293.94;1718749;83;20879;-78
2021/10/10 10:16:50;;;;;;;4.00;2.50;;;;;;;18.08;26.74;102295.51;1713493;83;20987;-78
2021/10/10 10:19:27;;;;;;;8.33;3.10;;;;;;;17.93;26.90;102292.88;1712333;82;21618;-77
2021/10/10 10:21:56;;;;;;;5.55;2.85;;;;;;;17.87;27.25;102295.92;1722567;82;20857;-77
2021/10/10 10:24:24;;;;;;;5.03;2.15;;;;;;;17.86;27.03;102288.08;1752750;80;21508;-78
2021/10/10 10:26:51;;;;;;;6.12;3.05;;;;;;;17.84;26.75;102289.97;1752498;82;20864;-79
2021/10/10 10:29:25;;;;;;;9.83;3.12;;;;;;;17.81;27.21;102296.30;1752543;82;20982;-79
2021/10/10 10:31:49;;;;;;;7.50;2.33;;;;;;;17.82;26.59;102286.08;1752147;81;21448;-79
2021/10/10 10:34:30;;;;;;;6.47;2.58;;;;;;;17.80;26.50;102289.27;1752780;82;20983;-79
2021/10/10 10:37:07;;;;;;;6.83;2.30;;;;;;;17.76;26.53;102289.09;1752678;82;21127;-79
2021/10/10 10:39:47;;;;;;;8.43;2.45;;;;;;;17.71;26.69;102283.23;1753067;82;20892;-79
2021/10/10 10:42:25;;;;;;;7.03;2.25;;;;;;;17.65;26.35;102285.78;1752747;80;20868;-79
2021/10/10 10:44:52;;;;;;;4.60;2.67;;;;;;;17.59;26.64;102277.75;1751531;82;20947;-77
2021/10/10 10:47:22;;;;;;;6.47;2.40;;;;;;;17.53;26.84;102283.44;1752457;82;20881;-80
2021/10/10 10:49:58;;;;;;;7.20;2.10;;;;;;;17.49;27.05;102289.03;1752907;82;21193;-80
2021/10/10 10:52:39;;;;;;;11.12;2.55;;;;;;;17.44;26.97;102283.17;1752462;82;21502;-80
2021/10/10 10:55:19;;;;;;;2.75;1.95;;;;;;;17.38;27.16;102279.09;1752617;81;20928;-80
2021/10/10 10:58:11;;;;;;;2.77;2.27;;;;;;;17.34;27.13;102285.08;1752455;82;20972;-79
2021/10/10 11:00:48;;;;;;;6.58;2.33;;;;;;;17.31;27.41;102289.23;1752524;80;21347;-75
2021/10/10 11:03:26;;;;;;;2.37;2.17;;;;;;;17.27;26.51;102288.19;1752427;82;21128;-76
2021/10/10 11:06:09;;;;;;;4.35;2.40;;;;;;;17.27;26.84;102283.73;1752538;82;20928;-79
2021/10/10 11:08:40;;;;;;;7.55;2.95;;;;;;;17.32;27.24;102283.44;1752533;82;21495;-78
2021/10/10 11:11:26;;;;;;;4.72;2.40;;;;;;;17.38;27.38;102281.27;1752457;80;20904;-79
2021/10/10 11:14:02;;;;;;;5.20;2.40;;;;;;;17.37;27.19;102283.55;1752328;82;20916;-79
2021/10/10 11:16:32;;;;;;;10.70;2.60;;;;;;;17.32;26.52;102269.73;1765309;80;21160;-79
2021/10/10 11:19:07;;;;;;;3.65;2.25;;;;;;;17.30;26.59;102272.11;1775147;80;21339;-79
2021/10/10 11:21:45;;;;;;;4.15;2.60;;;;;;;17.29;26.38;102275.21;1775150;80;21445;-79
2021/10/10 11:24:21;;;;;;;5.40;2.42;;;;;;;17.25;26.50;102272.36;1775244;80;20865;-80
2021/10/10 11:26:50;;;;;;;3.47;1.80;;;;;;;17.24;26.49;102274.65;1775157;80;20857;-81
2021/10/10 11:29:22;;;;;;;4.72;2.67;;;;;;;17.23;25.75;102268.11;1775294;80;21179;-79
2021/10/10 11:31:49;;;;;;;16.80;2.90;;;;;;;17.14;25.75;102269.08;1775128;80;20911;-79
2021/10/10 11:34:22;;;;;;;6.70;1.85;;;;;;;17.09;26.10;102262.33;1775171;80;21430;-79
2021/10/10 11:36:56;;;;;;;4.63;1.93;;;;;;;17.06;26.31;102262.53;1775686;80;21541;-78